sensor_id;sensor_type;location;lat;lon;timestamp;pressure;altitude;pressure_sealevel;temperature;humidity
85406;BME280;75817;42.662;23.270;2024-02-16T00:00:49;94990.84;;;0.78;73.93
85406;BME280;75817;42.662;23.270;2024-02-16T00:03:14;94988.44;;;0.90;73.27
85406;BME280;75817;42.662;23.270;2024-02-16T00:05:40;95005.84;;;0.92;73.40
85406;BME280;75817;42.662;23.270;2024-02-16T00:08:05;95006.19;;;0.97;73.74
85406;BME280;75817;42.662;23.270;2024-02-16T00:10:31;95004.00;;;0.87;73.48
85406;BME280;75817;42.662;23.270;2024-02-16T00:12:56;94942.34;;;0.33;74.12
85406;BME280;75817;42.662;23.270;2024-02-16T00:15:22;95045.44;;;1.22;73.04
85406;BME280;75817;42.662;23.270;2024-02-16T00:17:47;94997.31;;;0.58;74.36
85406;BME280;75817;42.662;23.270;2024-02-16T00:20:13;95051.59;;;0.75;75.22
85406;BME280;75817;42.662;23.270;2024-02-16T00:22:39;95056.34;;;0.74;75.67
85406;BME280;75817;42.662;23.270;2024-02-16T00:25:05;94999.91;;;0.33;75.52
85406;BME280;75817;42.662;23.270;2024-02-16T00:27:31;95049.41;;;0.81;75.11
85406;BME280;75817;42.662;23.270;2024-02-16T00:29:56;95013.59;;;0.48;75.33
85406;BME280;75817;42.662;23.270;2024-02-16T00:32:21;95001.50;;;0.59;74.48
85406;BME280;75817;42.662;23.270;2024-02-16T00:34:49;95062.75;;;0.84;75.45
85406;BME280;75817;42.662;23.270;2024-02-16T00:37:17;95061.47;;;0.63;76.04
85406;BME280;75817;42.662;23.270;2024-02-16T00:39:42;95071.91;;;0.72;75.70
85406;BME280;75817;42.662;23.270;2024-02-16T00:42:08;95047.75;;;0.70;75.27
85406;BME280;75817;42.662;23.270;2024-02-16T00:44:33;94994.59;;;0.35;75.00
85406;BME280;75817;42.662;23.270;2024-02-16T00:46:59;95069.47;;;0.99;74.28
85406;BME280;75817;42.662;23.270;2024-02-16T00:49:24;95021.84;;;0.48;74.97
85406;BME280;75817;42.662;23.270;2024-02-16T00:51:49;95014.50;;;0.59;74.93
85406;BME280;75817;42.662;23.270;2024-02-16T00:54:16;95007.06;;;0.21;76.12
85406;BME280;75817;42.662;23.270;2024-02-16T00:56:42;95053.06;;;0.76;74.75
85406;BME280;75817;42.662;23.270;2024-02-16T00:59:07;95030.25;;;0.35;76.05
85406;BME280;75817;42.662;23.270;2024-02-16T01:01:34;95048.88;;;0.52;75.58
85406;BME280;75817;42.662;23.270;2024-02-16T01:04:00;95005.75;;;0.53;74.79
85406;BME280;75817;42.662;23.270;2024-02-16T01:06:26;95060.38;;;0.81;74.97
85406;BME280;75817;42.662;23.270;2024-02-16T01:08:51;95062.00;;;0.84;74.73
85406;BME280;75817;42.662;23.270;2024-02-16T01:11:16;95056.44;;;1.14;73.36
85406;BME280;75817;42.662;23.270;2024-02-16T01:13:42;95060.13;;;1.02;74.49
85406;BME280;75817;42.662;23.270;2024-02-16T01:16:08;94986.03;;;0.16;76.06
85406;BME280;75817;42.662;23.270;2024-02-16T01:18:35;95072.09;;;0.59;76.16
85406;BME280;75817;42.662;23.270;2024-02-16T01:21:01;95046.31;;;0.62;75.59
85406;BME280;75817;42.662;23.270;2024-02-16T01:23:28;95049.19;;;0.86;74.74
85406;BME280;75817;42.662;23.270;2024-02-16T01:25:53;95050.84;;;0.82;75.36
85406;BME280;75817;42.662;23.270;2024-02-16T01:28:19;94973.19;;;0.57;73.21
85406;BME280;75817;42.662;23.270;2024-02-16T01:30:44;95055.63;;;0.66;75.26
85406;BME280;75817;42.662;23.270;2024-02-16T01:33:09;94982.31;;;0.52;74.55
85406;BME280;75817;42.662;23.270;2024-02-16T01:35:35;95031.59;;;1.05;74.12
85406;BME280;75817;42.662;23.270;2024-02-16T01:38:01;94969.41;;;0.29;74.99
85406;BME280;75817;42.662;23.270;2024-02-16T01:40:27;94978.47;;;0.55;74.02
85406;BME280;75817;42.662;23.270;2024-02-16T01:42:53;95046.47;;;0.79;75.21
85406;BME280;75817;42.662;23.270;2024-02-16T01:45:18;94979.09;;;0.30;75.18
85406;BME280;75817;42.662;23.270;2024-02-16T01:47:46;94998.81;;;0.44;75.85
85406;BME280;75817;42.662;23.270;2024-02-16T01:50:14;94957.00;;;-0.02;76.46
85406;BME280;75817;42.662;23.270;2024-02-16T01:52:40;95027.63;;;0.83;74.90
85406;BME280;75817;42.662;23.270;2024-02-16T01:55:06;95019.69;;;1.02;73.62
85406;BME280;75817;42.662;23.270;2024-02-16T01:57:35;95023.03;;;0.78;74.76
85406;BME280;75817;42.662;23.270;2024-02-16T02:00:01;95012.28;;;0.72;74.64
85406;BME280;75817;42.662;23.270;2024-02-16T02:02:28;95031.75;;;1.07;74.15
85406;BME280;75817;42.662;23.270;2024-02-16T02:04:53;95023.38;;;0.97;74.24
85406;BME280;75817;42.662;23.270;2024-02-16T02:07:18;94968.63;;;0.52;73.95
85406;BME280;75817;42.662;23.270;2024-02-16T02:09:45;94987.19;;;0.83;73.45
85406;BME280;75817;42.662;23.270;2024-02-16T02:12:11;95020.66;;;1.37;72.61
85406;BME280;75817;42.662;23.270;2024-02-16T02:14:36;95027.38;;;1.51;72.04
85406;BME280;75817;42.662;23.270;2024-02-16T02:17:02;95027.19;;;1.02;72.90
85406;BME280;75817;42.662;23.270;2024-02-16T02:19:29;95031.28;;;0.70;74.63
85406;BME280;75817;42.662;23.270;2024-02-16T02:21:54;94973.59;;;0.30;74.77
85406;BME280;75817;42.662;23.270;2024-02-16T02:24:20;95019.09;;;0.48;75.06
85406;BME280;75817;42.662;23.270;2024-02-16T02:26:46;94979.78;;;0.46;73.88
85406;BME280;75817;42.662;23.270;2024-02-16T02:29:11;95031.19;;;1.16;72.76
85406;BME280;75817;42.662;23.270;2024-02-16T02:31:37;94967.19;;;0.35;73.98
85406;BME280;75817;42.662;23.270;2024-02-16T02:34:02;94992.44;;;0.04;76.38
85406;BME280;75817;42.662;23.270;2024-02-16T02:36:27;95036.09;;;0.62;74.78
85406;BME280;75817;42.662;23.270;2024-02-16T02:38:53;94929.94;;;0.17;73.03
85406;BME280;75817;42.662;23.270;2024-02-16T02:41:18;94969.56;;;0.46;73.68
85406;BME280;75817;42.662;23.270;2024-02-16T02:43:45;95029.78;;;1.00;72.65
85406;BME280;75817;42.662;23.270;2024-02-16T02:46:15;95010.84;;;0.56;74.41
85406;BME280;75817;42.662;23.270;2024-02-16T02:48:43;94968.50;;;-0.04;75.20
85406;BME280;75817;42.662;23.270;2024-02-16T02:51:09;94977.81;;;0.16;75.02
85406;BME280;75817;42.662;23.270;2024-02-16T02:53:35;95038.47;;;0.35;75.56
85406;BME280;75817;42.662;23.270;2024-02-16T02:56:00;95034.94;;;0.88;73.30
85406;BME280;75817;42.662;23.270;2024-02-16T02:58:26;95003.75;;;0.38;75.20
85406;BME280;75817;42.662;23.270;2024-02-16T03:00:51;94986.75;;;0.24;74.70
85406;BME280;75817;42.662;23.270;2024-02-16T03:03:16;95028.41;;;0.45;75.16
85406;BME280;75817;42.662;23.270;2024-02-16T03:05:42;95016.34;;;0.41;74.91
85406;BME280;75817;42.662;23.270;2024-02-16T03:08:08;94977.28;;;-0.28;76.69
85406;BME280;75817;42.662;23.270;2024-02-16T03:10:33;95021.66;;;0.31;76.11
85406;BME280;75817;42.662;23.270;2024-02-16T03:13:03;95041.22;;;0.20;76.88
85406;BME280;75817;42.662;23.270;2024-02-16T03:15:29;94991.53;;;-0.07;76.52
85406;BME280;75817;42.662;23.270;2024-02-16T03:17:55;95030.81;;;0.41;75.83
85406;BME280;75817;42.662;23.270;2024-02-16T03:20:20;95036.75;;;0.78;74.45
85406;BME280;75817;42.662;23.270;2024-02-16T03:22:46;94979.28;;;0.25;74.12
85406;BME280;75817;42.662;23.270;2024-02-16T03:25:12;95019.09;;;0.48;74.13
85406;BME280;75817;42.662;23.270;2024-02-16T03:27:37;95015.47;;;0.38;74.85
85406;BME280;75817;42.662;23.270;2024-02-16T03:30:03;95041.75;;;0.64;74.69
85406;BME280;75817;42.662;23.270;2024-02-16T03:32:30;94994.06;;;0.22;75.44
85406;BME280;75817;42.662;23.270;2024-02-16T03:34:59;95038.22;;;0.86;74.41
85406;BME280;75817;42.662;23.270;2024-02-16T03:37:25;95002.78;;;0.73;72.78
85406;BME280;75817;42.662;23.270;2024-02-16T03:39:50;95040.44;;;0.73;74.14
85406;BME280;75817;42.662;23.270;2024-02-16T03:42:16;94997.72;;;0.32;73.98
85406;BME280;75817;42.662;23.270;2024-02-16T03:44:43;94974.19;;;-0.02;75.13
85406;BME280;75817;42.662;23.270;2024-02-16T03:47:09;95038.47;;;0.28;75.87
85406;BME280;75817;42.662;23.270;2024-02-16T03:49:34;95040.47;;;0.27;76.10
85406;BME280;75817;42.662;23.270;2024-02-16T03:52:00;95039.94;;;0.36;75.51
85406;BME280;75817;42.662;23.270;2024-02-16T03:54:25;95044.31;;;0.24;76.10
85406;BME280;75817;42.662;23.270;2024-02-16T03:56:54;95020.41;;;0.10;75.59
85406;BME280;75817;42.662;23.270;2024-02-16T03:59:19;94980.38;;;-0.31;76.64
85406;BME280;75817;42.662;23.270;2024-02-16T04:01:45;94992.41;;;-0.19;76.12
85406;BME280;75817;42.662;23.270;2024-02-16T04:04:11;94974.69;;;-0.56;77.81
85406;BME280;75817;42.662;23.270;2024-02-16T04:06:36;94980.03;;;-0.20;76.66
85406;BME280;75817;42.662;23.270;2024-02-16T04:09:02;94986.59;;;0.30;74.78
85406;BME280;75817;42.662;23.270;2024-02-16T04:11:27;95032.81;;;0.48;75.13
85406;BME280;75817;42.662;23.270;2024-02-16T04:13:54;94964.66;;;-0.31;75.98
85406;BME280;75817;42.662;23.270;2024-02-16T04:16:20;95030.81;;;0.26;75.87
85406;BME280;75817;42.662;23.270;2024-02-16T04:18:47;95011.94;;;0.61;73.85
85406;BME280;75817;42.662;23.270;2024-02-16T04:21:12;94973.06;;;0.17;74.20
85406;BME280;75817;42.662;23.270;2024-02-16T04:23:38;95013.81;;;0.28;75.34
85406;BME280;75817;42.662;23.270;2024-02-16T04:26:03;94929.78;;;-0.30;75.51
85406;BME280;75817;42.662;23.270;2024-02-16T04:28:31;95007.47;;;0.95;72.90
85406;BME280;75817;42.662;23.270;2024-02-16T04:30:56;94921.78;;;-0.36;74.69
85406;BME280;75817;42.662;23.270;2024-02-16T04:33:22;95035.47;;;0.86;73.23
85406;BME280;75817;42.662;23.270;2024-02-16T04:35:47;95025.88;;;0.32;74.79
85406;BME280;75817;42.662;23.270;2024-02-16T04:38:13;94996.63;;;0.12;74.98
85406;BME280;75817;42.662;23.270;2024-02-16T04:40:38;95034.28;;;0.34;75.07
85406;BME280;75817;42.662;23.270;2024-02-16T04:43:04;94977.66;;;-0.24;76.46
85406;BME280;75817;42.662;23.270;2024-02-16T04:45:29;95014.38;;;-0.04;76.43
85406;BME280;75817;42.662;23.270;2024-02-16T04:47:55;95040.84;;;0.09;76.70
85406;BME280;75817;42.662;23.270;2024-02-16T04:50:20;94968.50;;;-0.19;75.89
85406;BME280;75817;42.662;23.270;2024-02-16T04:52:46;94969.75;;;-0.35;76.53
85406;BME280;75817;42.662;23.270;2024-02-16T04:55:11;94975.63;;;-0.23;76.33
85406;BME280;75817;42.662;23.270;2024-02-16T04:57:36;94980.19;;;-0.33;76.52
85406;BME280;75817;42.662;23.270;2024-02-16T05:00:02;94997.72;;;-0.21;76.67
85406;BME280;75817;42.662;23.270;2024-02-16T05:02:28;95036.66;;;0.30;75.63
85406;BME280;75817;42.662;23.270;2024-02-16T05:04:54;95002.09;;;0.50;73.91
85406;BME280;75817;42.662;23.270;2024-02-16T05:07:20;95048.78;;;0.98;72.62
85406;BME280;75817;42.662;23.270;2024-02-16T05:09:46;94941.09;;;0.04;73.58
85406;BME280;75817;42.662;23.270;2024-02-16T05:12:11;95054.91;;;0.66;74.35
85406;BME280;75817;42.662;23.270;2024-02-16T05:14:36;95006.84;;;0.57;73.14
85406;BME280;75817;42.662;23.270;2024-02-16T05:17:02;95000.59;;;0.64;73.01
85406;BME280;75817;42.662;23.270;2024-02-16T05:19:27;95032.00;;;0.86;72.99
85406;BME280;75817;42.662;23.270;2024-02-16T05:21:52;95002.84;;;0.13;74.81
85406;BME280;75817;42.662;23.270;2024-02-16T05:24:18;95070.81;;;0.67;74.91
85406;BME280;75817;42.662;23.270;2024-02-16T05:26:43;95015.66;;;0.18;74.20
85406;BME280;75817;42.662;23.270;2024-02-16T05:29:09;95073.75;;;0.46;75.52
85406;BME280;75817;42.662;23.270;2024-02-16T05:31:34;95014.91;;;0.32;74.45
85406;BME280;75817;42.662;23.270;2024-02-16T05:34:00;95064.38;;;0.87;73.06
85406;BME280;75817;42.662;23.270;2024-02-16T05:36:25;95020.38;;;0.47;73.24
85406;BME280;75817;42.662;23.270;2024-02-16T05:38:55;95036.44;;;0.43;73.50
85406;BME280;75817;42.662;23.270;2024-02-16T05:41:21;95022.59;;;0.19;74.09
85406;BME280;75817;42.662;23.270;2024-02-16T05:43:47;95033.91;;;0.45;74.17
85406;BME280;75817;42.662;23.270;2024-02-16T05:46:14;95075.53;;;0.74;73.80
85406;BME280;75817;42.662;23.270;2024-02-16T05:48:39;95019.28;;;0.20;74.27
85406;BME280;75817;42.662;23.270;2024-02-16T05:51:06;95020.94;;;-0.07;75.41
85406;BME280;75817;42.662;23.270;2024-02-16T05:53:32;95079.41;;;0.18;75.90
85406;BME280;75817;42.662;23.270;2024-02-16T05:55:58;95042.13;;;0.00;76.02
85406;BME280;75817;42.662;23.270;2024-02-16T05:58:24;95084.00;;;0.23;76.22
85406;BME280;75817;42.662;23.270;2024-02-16T06:00:50;95050.53;;;0.25;76.06
85406;BME280;75817;42.662;23.270;2024-02-16T06:03:15;95102.75;;;1.03;74.10
85406;BME280;75817;42.662;23.270;2024-02-16T06:05:41;95088.16;;;0.92;73.85
85406;BME280;75817;42.662;23.270;2024-02-16T06:08:10;95097.69;;;0.84;74.54
85406;BME280;75817;42.662;23.270;2024-02-16T06:10:35;95080.66;;;0.78;74.81
85406;BME280;75817;42.662;23.270;2024-02-16T06:13:00;95085.03;;;1.04;73.98
85406;BME280;75817;42.662;23.270;2024-02-16T06:15:26;95087.69;;;1.26;73.54
85406;BME280;75817;42.662;23.270;2024-02-16T06:17:52;95089.97;;;1.53;72.31
85406;BME280;75817;42.662;23.270;2024-02-16T06:20:17;95088.38;;;1.82;71.19
85406;BME280;75817;42.662;23.270;2024-02-16T06:22:43;95095.44;;;1.60;72.18
85406;BME280;75817;42.662;23.270;2024-02-16T06:25:09;95021.84;;;1.19;72.71
85406;BME280;75817;42.662;23.270;2024-02-16T06:27:35;95085.81;;;1.84;71.98
85406;BME280;75817;42.662;23.270;2024-02-16T06:30:01;95078.72;;;2.06;70.60
85406;BME280;75817;42.662;23.270;2024-02-16T06:32:27;95031.31;;;1.65;70.16
85406;BME280;75817;42.662;23.270;2024-02-16T06:34:53;95085.81;;;2.16;70.44
85406;BME280;75817;42.662;23.270;2024-02-16T06:37:19;95088.41;;;2.07;72.63
85406;BME280;75817;42.662;23.270;2024-02-16T06:39:44;95040.19;;;1.81;74.35
85406;BME280;75817;42.662;23.270;2024-02-16T06:42:10;95095.56;;;2.34;72.76
85406;BME280;75817;42.662;23.270;2024-02-16T06:44:38;95093.81;;;2.22;72.12
85406;BME280;75817;42.662;23.270;2024-02-16T06:47:04;95044.00;;;2.18;71.01
85406;BME280;75817;42.662;23.270;2024-02-16T06:49:29;95081.34;;;2.46;70.52
85406;BME280;75817;42.662;23.270;2024-02-16T06:51:54;95088.25;;;2.54;70.31
85406;BME280;75817;42.662;23.270;2024-02-16T06:54:20;95062.78;;;2.54;69.58
85406;BME280;75817;42.662;23.270;2024-02-16T06:56:46;95085.00;;;2.73;66.96
85406;BME280;75817;42.662;23.270;2024-02-16T06:59:11;95079.94;;;2.62;67.00
85406;BME280;75817;42.662;23.270;2024-02-16T07:01:36;95023.03;;;2.22;66.76
85406;BME280;75817;42.662;23.270;2024-02-16T07:04:02;95093.50;;;2.67;66.44
85406;BME280;75817;42.662;23.270;2024-02-16T07:06:27;95097.97;;;2.80;66.63
85406;BME280;75817;42.662;23.270;2024-02-16T07:08:53;95099.13;;;2.94;66.68
85406;BME280;75817;42.662;23.270;2024-02-16T07:11:19;95099.44;;;2.98;66.66
85406;BME280;75817;42.662;23.270;2024-02-16T07:13:46;95082.06;;;2.96;66.28
85406;BME280;75817;42.662;23.270;2024-02-16T07:16:11;95092.84;;;3.18;66.03
85406;BME280;75817;42.662;23.270;2024-02-16T07:18:37;95090.94;;;3.04;66.68
85406;BME280;75817;42.662;23.270;2024-02-16T07:21:02;95075.88;;;3.05;65.83
85406;BME280;75817;42.662;23.270;2024-02-16T07:23:28;95087.16;;;3.16;65.20
85406;BME280;75817;42.662;23.270;2024-02-16T07:25:54;95085.31;;;3.19;65.65
85406;BME280;75817;42.662;23.270;2024-02-16T07:28:22;95083.69;;;3.33;64.70
85406;BME280;75817;42.662;23.270;2024-02-16T07:30:47;95020.91;;;2.80;64.86
85406;BME280;75817;42.662;23.270;2024-02-16T07:33:13;95086.56;;;3.35;64.76
85406;BME280;75817;42.662;23.270;2024-02-16T07:35:38;95030.13;;;2.92;65.03
85406;BME280;75817;42.662;23.270;2024-02-16T07:38:04;95049.19;;;3.15;64.40
85406;BME280;75817;42.662;23.270;2024-02-16T07:40:30;95084.72;;;3.38;64.29
85406;BME280;75817;42.662;23.270;2024-02-16T07:42:58;95095.81;;;3.47;64.02
85406;BME280;75817;42.662;23.270;2024-02-16T07:45:24;95043.56;;;3.22;63.93
85406;BME280;75817;42.662;23.270;2024-02-16T07:47:49;95052.31;;;3.28;63.84
85406;BME280;75817;42.662;23.270;2024-02-16T07:50:19;95038.88;;;3.15;64.18
85406;BME280;75817;42.662;23.270;2024-02-16T07:52:45;95081.81;;;3.35;63.72
85406;BME280;75817;42.662;23.270;2024-02-16T07:55:11;95068.19;;;3.38;62.36
85406;BME280;75817;42.662;23.270;2024-02-16T07:57:36;95085.28;;;3.53;63.32
85406;BME280;75817;42.662;23.270;2024-02-16T08:00:03;95097.91;;;3.73;63.68
85406;BME280;75817;42.662;23.270;2024-02-16T08:02:28;95043.31;;;3.45;63.04
85406;BME280;75817;42.662;23.270;2024-02-16T08:04:54;95068.88;;;3.72;62.42
85406;BME280;75817;42.662;23.270;2024-02-16T08:07:19;95094.44;;;4.00;62.34
85406;BME280;75817;42.662;23.270;2024-02-16T08:09:48;95087.50;;;3.81;62.73
85406;BME280;75817;42.662;23.270;2024-02-16T08:12:14;95060.28;;;3.68;62.02
85406;BME280;75817;42.662;23.270;2024-02-16T08:14:40;95105.31;;;3.98;61.69
85406;BME280;75817;42.662;23.270;2024-02-16T08:17:06;95106.03;;;3.98;62.31
85406;BME280;75817;42.662;23.270;2024-02-16T08:19:33;95055.25;;;3.74;62.08
85406;BME280;75817;42.662;23.270;2024-02-16T08:22:02;95096.13;;;4.12;60.80
85406;BME280;75817;42.662;23.270;2024-02-16T08:24:29;95000.41;;;3.52;61.04
85406;BME280;75817;42.662;23.270;2024-02-16T08:26:55;95107.59;;;4.18;61.65
85406;BME280;75817;42.662;23.270;2024-02-16T08:29:21;95031.00;;;3.73;60.88
85406;BME280;75817;42.662;23.270;2024-02-16T08:31:50;95091.69;;;4.26;59.96
85406;BME280;75817;42.662;23.270;2024-02-16T08:34:16;95110.88;;;4.34;60.50
85406;BME280;75817;42.662;23.270;2024-02-16T08:36:48;95098.25;;;4.31;59.95
85406;BME280;75817;42.662;23.270;2024-02-16T08:39:14;95094.47;;;4.36;60.16
85406;BME280;75817;42.662;23.270;2024-02-16T08:41:40;95045.56;;;4.10;59.75
85406;BME280;75817;42.662;23.270;2024-02-16T08:44:08;95100.19;;;4.48;60.49
85406;BME280;75817;42.662;23.270;2024-02-16T08:46:41;95099.31;;;4.45;60.53
85406;BME280;75817;42.662;23.270;2024-02-16T08:49:07;95065.81;;;4.22;60.88
85406;BME280;75817;42.662;23.270;2024-02-16T08:51:33;95060.22;;;4.39;60.61
85406;BME280;75817;42.662;23.270;2024-02-16T08:53:59;95109.72;;;4.73;59.56
85406;BME280;75817;42.662;23.270;2024-02-16T08:56:25;95055.13;;;4.36;59.01
85406;BME280;75817;42.662;23.270;2024-02-16T08:58:50;95080.66;;;4.63;58.90
85406;BME280;75817;42.662;23.270;2024-02-16T09:01:16;95107.16;;;4.85;59.04
85406;BME280;75817;42.662;23.270;2024-02-16T09:03:42;95098.13;;;4.85;58.24
85406;BME280;75817;42.662;23.270;2024-02-16T09:06:07;95054.47;;;4.64;59.02
85406;BME280;75817;42.662;23.270;2024-02-16T09:08:33;95107.63;;;5.10;60.07
85406;BME280;75817;42.662;23.270;2024-02-16T09:11:00;95097.59;;;5.05;59.15
85406;BME280;75817;42.662;23.270;2024-02-16T09:13:31;95111.56;;;5.07;59.28
85406;BME280;75817;42.662;23.270;2024-02-16T09:15:56;95058.91;;;4.86;58.53
85406;BME280;75817;42.662;23.270;2024-02-16T09:18:21;95073.88;;;5.02;59.07
85406;BME280;75817;42.662;23.270;2024-02-16T09:20:46;95068.34;;;4.93;58.15
85406;BME280;75817;42.662;23.270;2024-02-16T09:23:12;95012.91;;;4.62;57.94
85406;BME280;75817;42.662;23.270;2024-02-16T09:25:37;95082.47;;;5.06;57.95
85406;BME280;75817;42.662;23.270;2024-02-16T09:28:03;95054.53;;;5.02;57.71
85406;BME280;75817;42.662;23.270;2024-02-16T09:30:28;95100.09;;;5.49;57.54
85406;BME280;75817;42.662;23.270;2024-02-16T09:32:54;95102.88;;;5.59;56.62
85406;BME280;75817;42.662;23.270;2024-02-16T09:35:19;95107.97;;;5.62;57.54
85406;BME280;75817;42.662;23.270;2024-02-16T09:37:44;95102.28;;;5.70;56.68
85406;BME280;75817;42.662;23.270;2024-02-16T09:40:12;95096.75;;;5.60;57.55
85406;BME280;75817;42.662;23.270;2024-02-16T09:42:38;95106.09;;;5.74;56.51
85406;BME280;75817;42.662;23.270;2024-02-16T09:45:05;95108.69;;;5.72;56.74
85406;BME280;75817;42.662;23.270;2024-02-16T09:47:32;95058.81;;;5.51;55.83
85406;BME280;75817;42.662;23.270;2024-02-16T09:49:58;95052.53;;;5.51;54.69
85406;BME280;75817;42.662;23.270;2024-02-16T09:52:23;95059.50;;;5.61;55.82
85406;BME280;75817;42.662;23.270;2024-02-16T09:54:49;95042.63;;;5.57;55.44
85406;BME280;75817;42.662;23.270;2024-02-16T09:57:18;95093.56;;;5.83;55.83
85406;BME280;75817;42.662;23.270;2024-02-16T09:59:44;95097.19;;;5.95;56.16
85406;BME280;75817;42.662;23.270;2024-02-16T10:02:09;95086.56;;;6.01;56.11
85406;BME280;75817;42.662;23.270;2024-02-16T10:04:35;95055.53;;;5.84;56.09
85406;BME280;75817;42.662;23.270;2024-02-16T10:07:01;95047.72;;;5.90;55.04
85406;BME280;75817;42.662;23.270;2024-02-16T10:09:28;95093.19;;;6.37;54.91
85406;BME280;75817;42.662;23.270;2024-02-16T10:11:57;95074.69;;;6.30;54.30
85406;BME280;75817;42.662;23.270;2024-02-16T10:14:23;95070.41;;;6.38;53.97
85406;BME280;75817;42.662;23.270;2024-02-16T10:17:04;95076.63;;;6.58;53.35
85406;BME280;75817;42.662;23.270;2024-02-16T10:19:30;95070.41;;;6.38;54.33
85406;BME280;75817;42.662;23.270;2024-02-16T10:22:11;95075.09;;;6.45;54.22
85406;BME280;75817;42.662;23.270;2024-02-16T10:24:37;95022.00;;;6.18;52.78
85406;BME280;75817;42.662;23.270;2024-02-16T10:27:05;95031.16;;;6.20;54.29
85406;BME280;75817;42.662;23.270;2024-02-16T10:29:32;95011.22;;;6.22;54.40
85406;BME280;75817;42.662;23.270;2024-02-16T10:31:57;95013.66;;;6.28;53.85
85406;BME280;75817;42.662;23.270;2024-02-16T10:34:24;95053.50;;;6.75;52.20
85406;BME280;75817;42.662;23.270;2024-02-16T10:36:51;95048.78;;;6.56;53.12
85406;BME280;75817;42.662;23.270;2024-02-16T10:39:17;95002.56;;;6.28;53.89
85406;BME280;75817;42.662;23.270;2024-02-16T10:41:44;95057.47;;;6.72;54.29
85406;BME280;75817;42.662;23.270;2024-02-16T10:44:11;95041.25;;;6.78;53.26
85406;BME280;75817;42.662;23.270;2024-02-16T10:46:36;95007.09;;;6.85;51.51
85406;BME280;75817;42.662;23.270;2024-02-16T10:49:03;95043.50;;;6.91;51.73
85406;BME280;75817;42.662;23.270;2024-02-16T10:51:38;95032.63;;;6.83;52.23
85406;BME280;75817;42.662;23.270;2024-02-16T10:54:05;94997.38;;;6.74;51.96
85406;BME280;75817;42.662;23.270;2024-02-16T10:56:33;95045.78;;;7.04;52.34
85406;BME280;75817;42.662;23.270;2024-02-16T10:59:05;94991.75;;;6.62;52.41
85406;BME280;75817;42.662;23.270;2024-02-16T11:14:59;95023.97;;;7.10;51.23
85406;BME280;75817;42.662;23.270;2024-02-16T11:17:24;94973.44;;;6.79;51.87
85406;BME280;75817;42.662;23.270;2024-02-16T11:19:50;94972.41;;;6.84;51.97
85406;BME280;75817;42.662;23.270;2024-02-16T11:22:20;95025.63;;;7.25;51.56
85406;BME280;75817;42.662;23.270;2024-02-16T11:24:47;94998.25;;;7.52;50.75
85406;BME280;75817;42.662;23.270;2024-02-16T11:27:13;95010.41;;;7.47;51.39
85406;BME280;75817;42.662;23.270;2024-02-16T11:29:46;94957.25;;;7.18;50.46
85406;BME280;75817;42.662;23.270;2024-02-16T11:32:12;94951.06;;;7.07;51.51
85406;BME280;75817;42.662;23.270;2024-02-16T11:34:38;94971.75;;;7.28;52.04
85406;BME280;75817;42.662;23.270;2024-02-16T11:37:04;95007.34;;;7.64;51.17
85406;BME280;75817;42.662;23.270;2024-02-16T11:39:33;95000.31;;;8.07;49.26
85406;BME280;75817;42.662;23.270;2024-02-16T11:42:06;94943.19;;;7.70;48.21
85406;BME280;75817;42.662;23.270;2024-02-16T11:44:33;94964.19;;;7.84;47.04
85406;BME280;75817;42.662;23.270;2024-02-16T11:46:59;94950.34;;;7.96;46.68
85406;BME280;75817;42.662;23.270;2024-02-16T11:49:26;94940.53;;;7.83;47.62
85406;BME280;75817;42.662;23.270;2024-02-16T11:51:51;94988.97;;;8.03;50.26
85406;BME280;75817;42.662;23.270;2024-02-16T11:54:17;94988.16;;;8.24;49.34
85406;BME280;75817;42.662;23.270;2024-02-16T11:56:44;94979.56;;;8.20;47.08
85406;BME280;75817;42.662;23.270;2024-02-16T11:59:15;94997.91;;;8.13;48.06
85406;BME280;75817;42.662;23.270;2024-02-16T12:04:26;94991.69;;;8.48;49.77
85406;BME280;75817;42.662;23.270;2024-02-16T12:06:59;94953.97;;;8.22;49.51
85406;BME280;75817;42.662;23.270;2024-02-16T12:09:25;94936.47;;;8.07;48.49
85406;BME280;75817;42.662;23.270;2024-02-16T12:11:52;94972.22;;;8.25;48.02
85406;BME280;75817;42.662;23.270;2024-02-16T12:14:19;94980.44;;;8.34;48.54
85406;BME280;75817;42.662;23.270;2024-02-16T12:16:48;94982.72;;;8.49;48.21
85406;BME280;75817;42.662;23.270;2024-02-16T12:19:16;94965.81;;;8.34;48.43
85406;BME280;75817;42.662;23.270;2024-02-16T12:21:42;94983.81;;;8.56;48.13
85406;BME280;75817;42.662;23.270;2024-02-16T12:24:07;94943.34;;;8.18;48.44
85406;BME280;75817;42.662;23.270;2024-02-16T12:26:33;94969.31;;;8.57;48.26
85406;BME280;75817;42.662;23.270;2024-02-16T12:28:58;94971.28;;;9.03;46.51
85406;BME280;75817;42.662;23.270;2024-02-16T12:31:24;94952.94;;;8.98;46.42
85406;BME280;75817;42.662;23.270;2024-02-16T12:33:51;94925.38;;;8.42;47.11
85406;BME280;75817;42.662;23.270;2024-02-16T12:36:17;94955.78;;;8.64;47.86
85406;BME280;75817;42.662;23.270;2024-02-16T12:38:42;94914.75;;;8.27;47.74
85406;BME280;75817;42.662;23.270;2024-02-16T12:41:08;94963.63;;;8.79;47.90
85406;BME280;75817;42.662;23.270;2024-02-16T12:43:33;94953.22;;;8.79;47.21
85406;BME280;75817;42.662;23.270;2024-02-16T12:45:59;94915.22;;;8.47;47.98
85406;BME280;75817;42.662;23.270;2024-02-16T12:48:27;94904.34;;;8.51;48.09
85406;BME280;75817;42.662;23.270;2024-02-16T12:50:52;94932.59;;;8.59;47.65
85406;BME280;75817;42.662;23.270;2024-02-16T12:53:18;94967.22;;;8.93;48.31
85406;BME280;75817;42.662;23.270;2024-02-16T12:55:43;94911.25;;;8.38;48.55
85406;BME280;75817;42.662;23.270;2024-02-16T12:58:09;94950.69;;;8.72;47.92
85406;BME280;75817;42.662;23.270;2024-02-16T13:00:34;94907.16;;;8.39;47.55
85406;BME280;75817;42.662;23.270;2024-02-16T13:03:00;94964.81;;;8.76;47.39
85406;BME280;75817;42.662;23.270;2024-02-16T13:05:25;94960.59;;;8.75;47.32
85406;BME280;75817;42.662;23.270;2024-02-16T13:07:50;94952.38;;;8.77;47.25
85406;BME280;75817;42.662;23.270;2024-02-16T13:10:16;94943.44;;;8.78;47.05